Time;durP1;ratioP1;P1;durP2;ratioP2;P2;SDS_P1;SDS_P2;PMS_P1;PMS_P2;Temp;Humidity;BMP_temperature;BMP_pressure;BME280_temperature;BME280_humidity;BME280_pressure;Samples;Min_cycle;Max_cycle;Signal;HPM_P1;HPM_P2
2022/03/29 00:01:24;;;;;;;16.17;8.57;;;;;;;12.04;46.92;98374.19;5015348;28;20041;-59
2022/03/29 00:03:50;;;;;;;13.48;7.95;;;;;;;12.17;47.47;98390.94;5010383;28;20037;-58
2022/03/29 00:09:37;;;;;;;14.05;7.45;;;;;;;12.04;47.07;98389.63;5015057;28;20048;-57
2022/03/29 00:15:24;;;;;;;18.52;8.57;;;;;;;11.86;47.58;98386.69;5011166;28;20758;-58
2022/03/29 00:17:50;;;;;;;10.32;7.80;;;;;;;11.76;47.45;98369.84;5016239;28;20040;-58
2022/03/29 00:23:37;;;;;;;11.27;7.15;;;;;;;11.48;47.84;98353.47;5010222;28;20584;-58
2022/03/29 00:26:03;;;;;;;13.25;6.80;;;;;;;11.49;48.80;98364.59;5010925;28;20121;-57
2022/03/29 00:28:28;;;;;;;13.93;8.70;;;;;;;11.34;48.72;98355.56;5013790;28;20036;-58
2022/03/29 00:34:16;;;;;;;10.98;7.40;;;;;;;11.26;49.06;98365.19;5010694;28;20419;-58
2022/03/29 00:36:41;;;;;;;10.88;7.05;;;;;;;11.33;49.12;98364.16;5011034;28;20041;-59
2022/03/29 00:42:30;;;;;;;12.68;7.80;;;;;;;11.13;50.08;98356.13;5011117;28;20411;-59
2022/03/29 00:44:56;;;;;;;13.90;8.00;;;;;;;10.95;50.07;98349.72;5011326;28;20053;-59
2022/03/29 00:47:22;;;;;;;18.88;9.45;;;;;;;10.78;50.20;98339.88;5010892;28;20064;-58
2022/03/29 00:53:10;;;;;;;13.57;8.90;;;;;;;10.87;50.49;98351.66;5014121;28;20045;-58
2022/03/29 00:55:36;;;;;;;13.70;8.10;;;;;;;10.73;51.02;98351.16;5011336;28;20041;-59
2022/03/29 00:58:03;;;;;;;12.88;8.20;;;;;;;10.76;50.83;98346.78;5010858;28;20479;-59
2022/03/29 01:03:50;;;;;;;12.50;7.63;;;;;;;10.65;51.37;98328.25;5013027;28;20568;-59
2022/03/29 01:06:16;;;;;;;14.43;8.93;;;;;;;10.68;51.30;98345.28;5011463;28;20129;-58
2022/03/29 01:08:41;;;;;;;14.55;7.50;;;;;;;10.66;51.98;98340.19;5009925;28;20038;-59
2022/03/29 01:11:10;;;;;;;13.77;7.80;;;;;;;10.35;52.98;98322.16;5011748;28;20403;-59
2022/03/29 01:13:35;;;;;;;13.77;8.18;;;;;;;10.46;52.56;98334.69;5011451;28;20037;-59
2022/03/29 01:17:38;;;;;;;14.48;8.40;;;;;;;10.42;52.34;98333.09;5009383;28;20077;-59
2022/03/29 01:22:10;;;;;;;13.48;8.07;;;;;;;10.33;53.13;98321.34;5011985;28;20104;-58
2022/03/29 01:24:36;;;;;;;15.57;8.37;;;;;;;10.35;52.95;98311.06;5010931;28;20480;-58
2022/03/29 01:27:06;;;;;;;13.13;8.87;;;;;;;10.24;53.92;98316.41;5011698;28;20045;-58
2022/03/29 01:29:33;;;;;;;14.27;7.77;;;;;;;10.06;54.25;98319.34;5010244;28;20568;-59
2022/03/29 01:32:02;;;;;;;17.73;9.67;;;;;;;9.86;54.80;98293.34;5010236;28;20042;-59
2022/03/29 01:34:28;;;;;;;11.30;7.25;;;;;;;9.70;55.43;98297.09;5012528;28;20026;-58
2022/03/29 01:40:19;;;;;;;11.53;7.53;;;;;;;9.16;59.28;98305.81;5010018;28;20526;-59
2022/03/29 01:42:59;;;;;;;11.13;7.40;;;;;;;8.85;61.36;98304.69;5010876;28;20033;-59
2022/03/29 01:45:27;;;;;;;12.90;7.63;;;;;;;8.49;64.62;98301.03;5012107;28;20026;-59
2022/03/29 01:47:53;;;;;;;14.00;7.80;;;;;;;8.25;68.85;98302.22;5009655;28;20029;-58
2022/03/29 01:50:18;;;;;;;11.47;7.53;;;;;;;8.05;71.28;98296.59;5011741;28;20029;-58
2022/03/29 01:52:46;;;;;;;9.53;7.27;;;;;;;7.87;73.66;98294.28;5011605;28;20457;-58
2022/03/29 01:55:14;;;;;;;14.63;7.17;;;;;;;7.59;76.14;98272.56;5010101;28;20148;-58
2022/03/29 01:57:40;;;;;;;10.07;7.33;;;;;;;7.37;78.18;98260.94;5011381;28;20064;-58
2022/03/29 02:03:27;;;;;;;13.23;8.10;;;;;;;7.17;79.78;98261.19;5013396;28;20138;-56
2022/03/29 02:05:53;;;;;;;12.43;7.67;;;;;;;7.09;81.54;98266.34;5011714;28;20034;-58
2022/03/29 02:08:18;;;;;;;12.93;9.03;;;;;;;7.12;81.92;98278.22;5011220;28;20058;-58
2022/03/29 02:10:44;;;;;;;13.10;9.13;;;;;;;7.09;83.20;98279.06;5012155;28;20048;-58
2022/03/29 02:13:09;;;;;;;16.17;8.80;;;;;;;7.01;84.15;98272.38;5012614;28;20043;-57
2022/03/29 02:15:39;;;;;;;11.73;7.67;;;;;;;7.01;84.18;98278.31;5013409;28;20050;-57
2022/03/29 02:21:26;;;;;;;14.03;8.10;;;;;;;6.72;86.38;98255.69;5010420;28;20140;-58
2022/03/29 02:23:51;;;;;;;12.93;8.67;;;;;;;6.77;87.53;98274.31;5007249;28;20547;-58
2022/03/29 02:26:17;;;;;;;15.57;8.67;;;;;;;6.60;87.67;98237.13;5009496;28;20534;-58
2022/03/29 02:28:42;;;;;;;13.50;8.63;;;;;;;6.66;89.45;98276.13;5013423;28;20037;-58
2022/03/29 02:34:30;;;;;;;14.53;7.97;;;;;;;6.61;88.68;98269.41;5007778;28;20407;-56
2022/03/29 02:36:55;;;;;;;12.97;7.83;;;;;;;6.55;89.63;98265.19;5009538;28;20484;-58
2022/03/29 02:39:21;;;;;;;11.53;7.63;;;;;;;6.56;88.02;98250.75;5013396;28;20439;-58
2022/03/29 02:41:46;;;;;;;11.93;7.63;;;;;;;6.63;88.42;98263.41;5009618;28;20029;-58
2022/03/29 02:51:08;;;;;;;13.10;7.30;;;;;;;6.59;87.65;98251.56;5011267;28;20575;-61
2022/03/29 03:00:18;;;;;;;11.17;7.60;;;;;;;6.68;86.24;98250.63;5010778;28;20071;-61
2022/03/29 03:02:47;;;;;;;13.47;7.63;;;;;;;6.55;87.65;98246.50;5006750;28;20070;-62
2022/03/29 03:05:14;;;;;;;11.80;8.53;;;;;;;6.40;89.53;98242.41;5007739;28;20045;-62
2022/03/29 03:07:40;;;;;;;16.10;8.87;;;;;;;6.41;90.70;98239.84;5009868;28;20115;-62
2022/03/29 03:10:06;;;;;;;14.47;8.17;;;;;;;6.49;90.77;98241.50;5008967;28;20076;-62
2022/03/29 03:12:39;;;;;;;18.23;8.37;;;;;;;6.52;nan;98241.47;5009089;28;20489;-62
2022/03/29 03:15:06;;;;;;;16.50;8.70;;;;;;;6.55;89.98;98246.50;5010581;28;20064;-61
2022/03/29 03:20:53;;;;;;;13.00;8.40;;;;;;;6.53;91.19;98240.59;5012214;28;20036;-61
2022/03/29 03:23:18;;;;;;;15.57;8.53;;;;;;;6.52;90.75;98241.47;5010637;28;20450;-62
2022/03/29 03:25:44;;;;;;;15.50;7.80;;;;;;;6.46;90.73;98224.53;5011786;28;20045;-60
2022/03/29 03:28:09;;;;;;;14.33;8.57;;;;;;;6.38;90.62;98216.97;5014711;28;20044;-54
2022/03/29 03:30:35;;;;;;;16.90;8.80;;;;;;;6.55;90.76;98236.31;5011231;28;20037;-55
2022/03/29 03:33:00;;;;;;;15.30;7.90;;;;;;;6.42;90.58;98200.81;5012380;28;20531;-59
2022/03/29 03:35:25;;;;;;;12.27;7.87;;;;;;;6.55;90.31;98223.59;5011892;28;20033;-59
2022/03/29 04:08:07;;;;;;;14.93;9.00;;;;;;;6.37;93.17;98188.97;5007912;28;20049;-59
2022/03/29 04:10:33;;;;;;;16.73;8.40;;;;;;;6.55;92.65;98201.53;5012108;28;20399;-60
2022/03/29 04:13:01;;;;;;;16.07;9.53;;;;;;;6.66;91.14;98197.16;5011875;28;20618;-60
2022/03/29 04:15:26;;;;;;;11.93;8.37;;;;;;;6.71;90.77;98204.75;5012787;28;20041;-60
2022/03/29 04:17:52;;;;;;;12.90;8.47;;;;;;;6.60;91.59;98204.03;5010071;28;20347;-60
2022/03/29 04:20:17;;;;;;;14.00;9.67;;;;;;;6.62;91.54;98205.69;5011348;28;20041;-60
2022/03/29 04:22:44;;;;;;;17.07;9.47;;;;;;;6.61;90.14;98188.75;5011926;28;20036;-60
2022/03/29 04:31:53;;;;;;;20.83;9.10;;;;;;;6.74;89.90;98187.75;5014773;28;20040;-60
2022/03/29 04:34:19;;;;;;;15.13;8.33;;;;;;;6.66;90.60;98186.16;5010578;28;20029;-62
2022/03/29 04:36:45;;;;;;;16.87;8.23;;;;;;;6.51;90.92;98169.31;5011312;28;20032;-60
2022/03/29 04:39:10;;;;;;;16.47;9.87;;;;;;;6.36;91.54;98157.59;5012805;28;20033;-60
2022/03/29 04:41:35;;;;;;;15.93;9.67;;;;;;;6.33;91.22;98162.69;5013789;28;20156;-60
2022/03/29 04:44:01;;;;;;;12.60;8.47;;;;;;;6.38;91.33;98175.38;5011368;28;20037;-59
2022/03/29 04:46:27;;;;;;;14.87;9.77;;;;;;;6.32;92.50;98170.38;5010602;28;20025;-61
2022/03/29 05:03:10;;;;;;;17.83;9.80;;;;;;;6.10;95.30;98163.78;5012790;28;20697;-61
2022/03/29 05:05:35;;;;;;;14.73;9.23;;;;;;;6.09;96.40;98164.63;5010476;28;20499;-59
2022/03/29 05:08:01;;;;;;;16.73;8.47;;;;;;;5.99;96.44;98151.13;5010139;28;20052;-60
2022/03/29 05:10:26;;;;;;;15.03;9.80;;;;;;;5.94;96.55;98151.16;5012999;28;20652;-60
2022/03/29 05:12:52;;;;;;;17.93;11.33;;;;;;;6.02;97.43;98151.13;5011539;28;20030;-61
2022/03/29 05:15:19;;;;;;;14.93;9.80;;;;;;;6.16;96.80;98169.66;5010494;28;20065;-60
2022/03/29 05:31:46;;;;;;;18.10;9.57;;;;;;;6.76;93.81;98152.06;5012775;28;20515;-60
2022/03/29 05:34:13;;;;;;;21.40;9.63;;;;;;;6.86;92.96;98154.50;5010092;28;20121;-60
2022/03/29 05:36:44;;;;;;;16.47;10.50;;;;;;;6.96;92.33;98137.38;5009106;28;20136;-60
2022/03/29 05:42:31;;;;;;;19.37;10.27;;;;;;;7.65;88.04;98150.00;5010138;28;20044;-60
2022/03/29 05:44:57;;;;;;;19.33;11.23;;;;;;;7.88;83.81;98149.66;5011832;28;20030;-60
2022/03/29 05:50:06;;;;;;;23.37;11.03;;;;;;;8.24;81.85;98146.47;5009729;28;20104;-61
2022/03/29 05:52:32;;;;;;;18.30;10.80;;;;;;;8.35;80.28;98138.69;5008393;28;20455;-61
2022/03/29 06:37:58;;;;;;;19.98;11.07;;;;;;;11.34;61.18;98145.13;4987990;28;20060;-60
2022/03/29 06:40:25;;;;;;;24.65;11.07;;;;;;;11.52;60.64;98139.44;5008322;28;20045;-61
2022/03/29 06:42:51;;;;;;;19.67;12.07;;;;;;;11.69;60.29;98139.75;5008232;28;20502;-61
2022/03/29 06:45:19;;;;;;;13.98;9.82;;;;;;;11.98;60.43;98153.44;5011706;28;20053;-60
2022/03/29 06:47:46;;;;;;;18.58;10.68;;;;;;;12.08;59.94;98140.25;5007721;28;20593;-60
2022/03/29 06:50:12;;;;;;;19.00;10.32;;;;;;;12.21;55.91;98138.09;5008852;28;20071;-59
2022/03/29 06:52:39;;;;;;;14.95;9.63;;;;;;;12.46;54.96;98151.81;5007762;28;20041;-60
2022/03/29 06:55:07;;;;;;;19.10;10.95;;;;;;;12.56;55.68;98140.31;5008702;28;20100;-60
2022/03/29 06:57:32;;;;;;;17.25;10.38;;;;;;;12.66;55.79;98127.97;5009522;28;20150;-60
2022/03/29 06:59:58;;;;;;;17.63;11.07;;;;;;;12.87;54.05;98142.63;5010227;28;20038;-60
2022/03/29 07:06:04;;;;;;;17.95;11.25;;;;;;;13.39;52.08;98141.59;5008295;28;20287;-60
2022/03/29 07:08:30;;;;;;;19.13;11.00;;;;;;;13.48;51.09;98125.78;5008956;28;20597;-58
2022/03/29 07:13:41;;;;;;;21.52;12.23;;;;;;;13.84;54.21;98146.69;5011466;28;20590;-59
2022/03/29 07:19:28;;;;;;;22.13;12.15;;;;;;;13.98;54.80;98133.25;5012379;28;20123;-60
2022/03/29 07:21:54;;;;;;;17.63;10.85;;;;;;;14.03;55.15;98133.91;5012052;28;20576;-60
2022/03/29 07:24:20;;;;;;;18.58;11.00;;;;;;;14.22;54.04;98139.13;5010445;28;20064;-59
2022/03/29 07:30:35;;;;;;;19.38;10.73;;;;;;;14.41;53.88;98133.19;5011677;28;20041;-60
2022/03/29 07:33:01;;;;;;;24.15;10.40;;;;;;;14.46;53.15;98126.09;5011252;28;20080;-60
2022/03/29 07:35:29;;;;;;;22.67;10.57;;;;;;;14.56;53.00;98121.34;5006918;28;20030;-59
2022/03/29 07:41:37;;;;;;;23.38;11.70;;;;;;;15.00;52.16;98132.31;4996703;28;20099;-59
2022/03/29 07:44:04;;;;;;;23.95;11.32;;;;;;;15.12;51.47;98131.75;5007498;28;20412;-60
2022/03/29 07:49:51;;;;;;;18.80;11.07;;;;;;;15.47;49.28;98117.25;5013167;28;20036;-59
2022/03/29 07:55:40;;;;;;;16.98;12.07;;;;;;;15.44;50.25;98110.47;5009456;28;20044;-60
2022/03/29 07:58:06;;;;;;;19.27;11.85;;;;;;;15.42;48.57;98112.28;5019757;28;20123;-60
2022/03/29 08:03:53;;;;;;;19.42;10.52;;;;;;;15.82;45.94;98118.19;5011542;28;20072;-60
2022/03/29 08:06:18;;;;;;;17.90;11.75;;;;;;;15.86;43.05;98122.28;5013300;28;20105;-60
2022/03/29 08:08:43;;;;;;;19.35;12.98;;;;;;;15.95;43.59;98104.56;5015030;28;20084;-60
2022/03/29 08:11:09;;;;;;;19.02;10.65;;;;;;;16.29;43.23;98113.28;5012111;28;20248;-60
2022/03/29 08:16:56;;;;;;;18.88;11.40;;;;;;;16.75;41.11;98091.91;5015407;28;20029;-60
2022/03/29 08:19:23;;;;;;;18.75;11.98;;;;;;;17.02;41.24;98102.53;5014361;28;20524;-59
2022/03/29 08:21:49;;;;;;;15.32;11.57;;;;;;;17.26;39.68;98103.00;5010845;28;20036;-59
2022/03/29 08:24:23;;;;;;;15.27;10.80;;;;;;;17.39;38.15;98095.38;5012317;28;20071;-60
2022/03/29 08:26:51;;;;;;;17.58;10.65;;;;;;;17.52;37.69;98104.16;5017970;28;20048;-60
2022/03/29 08:32:39;;;;;;;16.67;11.70;;;;;;;17.77;37.37;98091.53;5013269;28;20173;-59
2022/03/29 08:35:07;;;;;;;14.77;11.13;;;;;;;17.96;36.96;98099.91;5013664;28;20033;-60
2022/03/29 08:40:57;;;;;;;18.20;12.43;;;;;;;18.30;37.59;98085.84;5013563;28;20133;-60
2022/03/29 08:43:27;;;;;;;20.23;12.35;;;;;;;18.24;38.10;98074.06;5014181;28;20073;-60
2022/03/29 08:45:53;;;;;;;16.70;11.88;;;;;;;18.34;37.70;98081.28;5015946;28;20029;-60
2022/03/29 08:48:23;;;;;;;15.15;11.52;;;;;;;18.49;36.40;98086.44;5016956;28;20033;-60
2022/03/29 08:54:12;;;;;;;21.20;11.98;;;;;;;18.64;35.72;98075.16;5015989;28;20088;-59
2022/03/29 08:56:39;;;;;;;14.85;11.88;;;;;;;18.93;35.03;98075.13;5013490;28;20399;-61
2022/03/29 08:59:05;;;;;;;18.60;12.90;;;;;;;18.92;34.16;98071.72;5011568;28;20048;-60
2022/03/29 09:01:31;;;;;;;19.00;13.40;;;;;;;18.88;34.38;98072.84;5012462;28;20061;-60
2022/03/29 09:07:18;;;;;;;21.20;11.88;;;;;;;18.74;34.82;98065.03;5013332;28;20141;-60
2022/03/29 09:09:44;;;;;;;19.27;12.25;;;;;;;19.09;32.77;98058.53;5009521;28;20109;-60
2022/03/29 09:12:18;;;;;;;18.00;12.00;;;;;;;18.99;32.31;98072.16;5015937;28;20460;-61
2022/03/29 09:18:10;;;;;;;12.65;10.10;;;;;;;18.81;32.54;98058.53;5010165;28;20113;-61
2022/03/29 09:20:35;;;;;;;15.90;9.40;;;;;;;18.69;32.34;98052.34;5007878;28;20049;-61
2022/03/29 09:23:01;;;;;;;13.57;10.57;;;;;;;18.60;32.28;98052.06;5012282;28;20459;-61
2022/03/29 09:28:50;;;;;;;13.73;9.35;;;;;;;18.56;31.33;98038.44;5010558;28;20100;-60
2022/03/29 09:31:22;;;;;;;20.10;10.20;;;;;;;18.70;31.77;98048.81;5013830;28;20025;-60
2022/03/29 09:33:48;;;;;;;11.95;9.30;;;;;;;18.74;31.70;98044.25;5015385;28;20040;-59
2022/03/29 09:36:14;;;;;;;13.23;8.65;;;;;;;18.74;31.89;98043.44;5011681;28;20498;-60
2022/03/29 09:45:48;;;;;;;13.00;9.05;;;;;;;18.64;31.04;98043.97;4993342;28;20061;-61
2022/03/29 09:48:22;;;;;;;15.57;10.02;;;;;;;18.59;31.44;98034.78;5010213;28;20103;-60
2022/03/29 09:50:49;;;;;;;10.38;8.50;;;;;;;18.68;31.15;98029.88;5014377;28;20084;-61
2022/03/29 09:56:36;;;;;;;17.50;10.98;;;;;;;18.76;31.53;98039.78;5009983;28;20042;-60
2022/03/29 09:59:20;;;;;;;12.15;9.48;;;;;;;18.86;31.43;98019.28;5013645;28;20026;-60
2022/03/29 10:01:48;;;;;;;11.73;9.27;;;;;;;18.88;30.82;98026.06;5020731;28;20074;-60
2022/03/29 10:04:18;;;;;;;13.32;10.15;;;;;;;18.76;31.12;98000.84;5013647;28;20021;-60
2022/03/29 10:06:44;;;;;;;10.55;8.75;;;;;;;18.98;30.84;98018.53;5021012;28;20061;-59
2022/03/29 10:12:31;;;;;;;13.10;9.52;;;;;;;18.86;30.54;98014.94;5013870;28;20047;-61
2022/03/29 10:18:26;;;;;;;13.68;10.43;;;;;;;18.97;30.11;98001.25;5012700;28;20498;-61
2022/03/29 10:24:15;;;;;;;15.07;9.65;;;;;;;18.93;30.92;97998.03;5009501;28;20068;-60
2022/03/29 10:30:03;;;;;;;13.25;9.60;;;;;;;19.16;30.84;97965.41;5013832;28;20108;-59
2022/03/29 10:32:31;;;;;;;15.20;11.70;;;;;;;19.37;29.46;97981.38;5009391;28;20041;-61
2022/03/29 10:45:24;;;;;;;13.38;10.00;;;;;;;19.53;29.34;97956.91;5011164;28;20168;-61
2022/03/29 10:47:59;;;;;;;16.50;10.70;;;;;;;19.64;29.38;97964.00;4980512;28;20042;-61
2022/03/29 10:53:48;;;;;;;13.52;9.95;;;;;;;19.85;29.44;97962.59;5010684;28;20071;-61
2022/03/29 10:59:36;;;;;;;17.08;11.18;;;;;;;19.92;29.28;97952.59;5011197;28;20045;-59
2022/03/29 11:02:21;;;;;;;14.25;10.10;;;;;;;19.78;29.21;97935.28;5005494;28;20120;-60
2022/03/29 11:05:02;;;;;;;13.38;9.68;;;;;;;19.98;29.69;97934.81;5010765;28;21610;-60
2022/03/29 11:07:28;;;;;;;18.35;9.65;;;;;;;20.18;29.71;97927.38;5013410;28;20415;-60
2022/03/29 11:10:12;;;;;;;15.73;10.73;;;;;;;19.78;29.36;97909.28;5010063;28;20099;-60
2022/03/29 11:16:03;;;;;;;17.92;10.60;;;;;;;19.86;29.36;97932.19;5012927;28;20036;-60
2022/03/29 11:18:31;;;;;;;15.70;10.90;;;;;;;19.56;29.60;97925.50;5011118;28;20041;-61
2022/03/29 11:21:05;;;;;;;14.38;11.10;;;;;;;19.82;30.06;97917.69;5010118;28;20038;-61
2022/03/29 11:23:38;;;;;;;13.15;10.77;;;;;;;19.82;29.58;97915.94;5009752;28;20022;-61
2022/03/29 11:29:25;;;;;;;12.63;9.55;;;;;;;19.88;29.67;97891.28;5008980;28;20446;-61
2022/03/29 11:31:51;;;;;;;22.50;12.63;;;;;;;20.18;30.08;97893.53;5009107;28;20041;-60
2022/03/29 11:37:43;;;;;;;13.13;10.55;;;;;;;19.87;29.34;97895.66;5015522;28;20617;-61
2022/03/29 11:40:10;;;;;;;13.73;10.80;;;;;;;19.71;29.58;97869.03;5011869;28;20120;-61
2022/03/29 11:42:42;;;;;;;12.38;10.23;;;;;;;19.89;30.29;97880.78;5016269;28;20026;-60
2022/03/29 11:48:29;;;;;;;14.27;10.95;;;;;;;19.44;30.49;97847.47;5011780;28;20151;-60
2022/03/29 11:54:19;;;;;;;15.10;10.13;;;;;;;19.94;29.65;97864.84;5015954;28;20044;-60
2022/03/29 12:00:23;;;;;;;11.55;9.90;;;;;;;20.04;29.23;97865.88;5012107;28;20033;-59
2022/03/29 12:06:20;;;;;;;13.23;10.63;;;;;;;19.91;29.52;97829.47;5013592;28;20100;-54
2022/03/29 12:08:48;;;;;;;;;;;;;;;19.96;29.51;97835.19;5012542;28;20041;-60
2022/03/29 12:12:09;;;;;;;15.82;10.75;;;;;;;20.14;29.18;97838.28;5014808;28;20387;-60
2022/03/29 12:14:35;;;;;;;10.98;9.50;;;;;;;20.15;29.45;97818.28;5016296;28;20037;-61
2022/03/29 12:17:04;;;;;;;14.38;10.93;;;;;;;20.40;29.49;97820.84;5011861;28;20040;-60
2022/03/29 12:22:52;;;;;;;12.18;9.85;;;;;;;20.43;28.64;97816.25;5016504;28;20048;-61
2022/03/29 12:25:17;;;;;;;12.50;10.23;;;;;;;20.40;28.68;97824.28;5012419;28;20041;-60
2022/03/29 12:27:43;;;;;;;13.43;10.95;;;;;;;20.52;28.27;97806.94;4997935;28;20123;-60
2022/03/29 12:30:10;;;;;;;12.57;10.20;;;;;;;20.57;28.46;97794.41;5017800;28;20025;-60
2022/03/29 12:32:41;;;;;;;13.02;10.13;;;;;;;20.58;28.64;97788.25;5016407;28;20071;-59
2022/03/29 12:35:16;;;;;;;10.55;9.40;;;;;;;20.47;28.46;97794.25;5011232;28;20029;-59
2022/03/29 12:37:47;;;;;;;11.75;10.00;;;;;;;20.33;28.34;97786.59;5012590;28;20045;-60
2022/03/29 12:40:14;;;;;;;12.32;10.50;;;;;;;20.50;28.39;97778.38;5016590;28;20040;-60
2022/03/29 12:42:40;;;;;;;10.27;9.07;;;;;;;20.49;28.70;97753.31;5011889;28;20461;-60
2022/03/29 12:45:07;;;;;;;13.57;10.00;;;;;;;20.47;28.43;97788.19;5012634;28;20137;-60
2022/03/29 12:47:33;;;;;;;11.02;9.75;;;;;;;20.58;28.83;97764.81;5012909;28;20550;-61
2022/03/29 12:50:00;;;;;;;14.13;11.93;;;;;;;20.41;28.79;97773.84;5022735;28;20061;-61
2022/03/29 12:52:26;;;;;;;13.18;10.57;;;;;;;20.45;28.77;97764.06;5013925;28;20558;-60
2022/03/29 12:55:01;;;;;;;14.20;10.45;;;;;;;20.50;28.79;97760.16;5011137;28;20029;-61
2022/03/29 12:57:58;;;;;;;11.40;9.98;;;;;;;20.60;28.23;97747.31;5013306;28;20525;-61
2022/03/29 13:00:23;;;;;;;12.18;10.38;;;;;;;20.80;27.93;97766.66;5014867;28;20049;-59
2022/03/29 13:02:52;;;;;;;15.05;10.18;;;;;;;20.69;28.06;97757.06;5011257;28;20026;-60
2022/03/29 13:05:23;;;;;;;13.13;10.68;;;;;;;20.32;28.90;97753.72;5010830;28;20030;-61
2022/03/29 13:07:59;;;;;;;12.68;11.23;;;;;;;20.35;29.22;97748.28;5016825;28;20048;-61
2022/03/29 13:10:34;;;;;;;13.88;9.30;;;;;;;20.32;28.94;97747.66;5012624;28;20087;-62
2022/03/29 13:12:59;;;;;;;14.57;10.40;;;;;;;20.45;29.18;97738.03;5010305;28;20488;-61
2022/03/29 13:15:39;;;;;;;12.82;10.25;;;;;;;20.60;28.47;97742.09;5009856;28;20177;-61
2022/03/29 13:18:17;;;;;;;10.95;9.20;;;;;;;20.36;28.25;97716.09;5014063;28;20094;-60
2022/03/29 13:20:43;;;;;;;15.27;11.18;;;;;;;20.43;28.96;97722.50;5013446;28;20251;-62
2022/03/29 13:23:08;;;;;;;10.93;9.30;;;;;;;20.50;28.73;97718.50;5009441;28;20092;-61
2022/03/29 13:25:35;;;;;;;11.55;9.25;;;;;;;20.64;28.53;97725.28;5012547;28;20026;-61
2022/03/29 13:28:02;;;;;;;14.57;10.55;;;;;;;20.50;28.32;97734.13;5021955;28;20436;-62
2022/03/29 13:30:29;;;;;;;15.60;10.73;;;;;;;20.54;28.82;97716.50;5013378;28;20257;-61
2022/03/29 13:32:55;;;;;;;12.20;10.65;;;;;;;20.63;28.44;97721.03;5011644;28;20316;-61
2022/03/29 13:35:20;;;;;;;14.82;11.32;;;;;;;20.63;28.53;97705.38;5014414;28;20060;-61
2022/03/29 13:37:46;;;;;;;13.25;10.20;;;;;;;20.56;28.71;97712.00;5016064;28;20034;-61
2022/03/29 13:40:12;;;;;;;13.77;10.40;;;;;;;20.49;28.26;97703.00;5014703;28;20034;-57
2022/03/29 13:42:38;;;;;;;13.05;10.85;;;;;;;20.60;28.54;97687.41;5015146;28;20033;-64
2022/03/29 13:45:04;;;;;;;16.38;11.05;;;;;;;20.54;28.39;97682.63;5016610;28;20030;-62
2022/03/29 13:47:29;;;;;;;15.05;11.98;;;;;;;20.46;29.11;97667.56;5018168;28;20029;-62
2022/03/29 13:53:20;;;;;;;16.00;12.15;;;;;;;20.33;29.07;97659.00;5017790;28;20609;-62
2022/03/29 13:55:46;;;;;;;16.90;11.18;;;;;;;20.52;28.90;97679.31;5017543;28;20034;-62
2022/03/29 13:58:12;;;;;;;15.60;11.60;;;;;;;20.31;28.64;97665.28;5014137;28;20104;-62
2022/03/29 14:00:38;;;;;;;13.30;10.15;;;;;;;20.30;29.03;97654.03;5011235;28;20094;-62
2022/03/29 14:03:05;;;;;;;13.45;11.50;;;;;;;20.67;28.66;97670.34;5012615;28;20030;-62
2022/03/29 14:05:30;;;;;;;13.85;9.18;;;;;;;20.65;28.53;97640.16;5013783;28;20044;-61
2022/03/29 14:07:57;;;;;;;14.15;10.88;;;;;;;20.42;27.79;97639.28;5012697;28;20025;-60
2022/03/29 14:10:23;;;;;;;18.25;10.63;;;;;;;20.48;27.99;97655.28;5010011;28;20088;-60
2022/03/29 14:12:49;;;;;;;10.40;9.02;;;;;;;20.44;28.16;97653.03;5010900;28;20104;-60
2022/03/29 14:15:15;;;;;;;12.05;10.20;;;;;;;20.44;27.83;97637.41;5013335;28;20467;-61
2022/03/29 14:17:40;;;;;;;11.02;9.20;;;;;;;20.39;27.70;97642.13;5011017;28;20164;-63
2022/03/29 14:20:19;;;;;;;11.23;8.65;;;;;;;20.50;27.66;97626.50;5010553;28;20033;-60
2022/03/29 14:26:07;;;;;;;13.70;10.65;;;;;;;20.29;28.03;97613.31;5012625;28;20037;-60
2022/03/29 14:28:32;;;;;;;13.13;10.63;;;;;;;20.31;28.07;97626.25;5010895;28;20400;-61
2022/03/29 14:31:00;;;;;;;11.48;10.10;;;;;;;20.46;28.25;97625.91;5012300;28;20025;-61
2022/03/29 14:36:48;;;;;;;13.40;10.05;;;;;;;20.49;27.93;97612.69;5010684;28;20040;-63
2022/03/29 14:42:36;;;;;;;13.38;10.60;;;;;;;20.34;28.45;97611.22;5017416;28;20079;-62
2022/03/29 14:45:03;;;;;;;14.30;10.27;;;;;;;20.22;28.39;97590.44;5015630;28;20102;-60
2022/03/29 14:47:29;;;;;;;13.13;10.32;;;;;;;20.24;28.62;97605.00;5009859;28;20114;-61
2022/03/29 14:53:17;;;;;;;16.83;10.95;;;;;;;20.20;28.61;97600.16;5013181;28;20036;-61
2022/03/29 14:59:04;;;;;;;1040.37;966.87;;;;;;;20.21;nan;97575.75;5011181;28;20045;-61
2022/03/29 15:01:30;;;;;;;1040.67;966.40;;;;;;;20.26;nan;97597.06;5014738;28;20029;-62
2022/03/29 15:07:18;;;;;;;1049.10;974.43;;;;;;;20.52;nan;97603.81;5010677;28;20083;-60
2022/03/29 15:09:43;;;;;;;1038.17;963.87;;;;;;;20.58;nan;97582.47;5018522;28;20484;-61
2022/03/29 15:12:18;;;;;;;1046.70;971.57;;;;;;;20.55;nan;97584.50;5016968;28;20454;-61
2022/03/29 15:14:44;;;;;;;1050.90;975.25;;;;;;;20.47;nan;97569.47;5013598;28;20376;-62
2022/03/29 15:17:10;;;;;;;1056.00;980.03;;;;;;;20.30;nan;97567.31;5013408;28;20036;-62
2022/03/29 15:19:36;;;;;;;1051.67;976.07;;;;;;;20.10;nan;97547.94;5018803;28;20036;-61
2022/03/29 15:22:04;;;;;;;1053.73;978.17;;;;;;;19.84;nan;97562.88;5017775;28;20450;-61
2022/03/29 15:24:30;;;;;;;1043.13;967.97;;;;;;;19.80;nan;97556.25;5013873;28;20017;-62
2022/03/29 15:26:55;;;;;;;11.82;9.90;;;;;;;19.60;nan;97543.88;5013878;28;20033;-62
2022/03/29 15:29:21;;;;;;;13.60;9.43;;;;;;;19.60;nan;97536.06;5018143;28;20026;-61
2022/03/29 15:31:46;;;;;;;11.57;9.88;;;;;;;19.55;nan;97543.38;5014450;28;20037;-61
2022/03/29 15:34:12;;;;;;;16.25;10.38;;;;;;;19.39;nan;97548.00;5013189;28;20108;-59
2022/03/29 15:36:40;;;;;;;13.38;9.13;;;;;;;19.26;nan;97536.81;5015239;28;20064;-61
2022/03/29 15:39:06;;;;;;;12.55;9.45;;;;;;;19.29;nan;97546.97;5016892;28;20171;-60
2022/03/29 15:41:32;;;;;;;12.45;9.35;;;;;;;19.20;nan;97547.63;5016865;28;20033;-59
2022/03/29 15:43:58;;;;;;;10.85;8.68;;;;;;;19.21;nan;97541.50;5011738;28;20376;-61
2022/03/29 15:46:24;;;;;;;13.65;9.23;;;;;;;19.30;nan;97536.47;5016024;28;20144;-59
2022/03/29 15:48:50;;;;;;;12.68;9.80;;;;;;;19.13;nan;97531.66;5015385;28;20064;-62
2022/03/29 15:51:16;;;;;;;13.40;8.75;;;;;;;19.09;nan;97533.66;5014408;28;20037;-61
2022/03/29 15:53:42;;;;;;;14.50;9.68;;;;;;;19.02;nan;97528.97;5011251;28;20473;-61
2022/03/29 15:56:07;;;;;;;16.27;10.63;;;;;;;18.89;nan;97544.59;5014421;28;20037;-64
2022/03/29 15:58:33;;;;;;;15.32;10.70;;;;;;;18.83;nan;97529.44;5017676;28;20049;-62
2022/03/29 16:00:58;;;;;;;14.80;10.93;;;;;;;18.86;nan;97523.19;5013062;28;20041;-61
2022/03/29 16:03:24;;;;;;;12.07;9.13;;;;;;;18.70;nan;97524.28;5012612;28;20538;-61
2022/03/29 16:10:01;;;;;;;15.80;9.63;;;;;;;18.68;nan;97533.09;5016184;28;20091;-62
2022/03/29 16:12:50;;;;;;;14.68;9.63;;;;;;;18.63;nan;97520.41;5010553;28;20044;-61
2022/03/29 16:18:47;;;;;;;16.58;9.55;;;;;;;18.61;nan;97527.50;5014344;28;20128;-61
2022/03/29 16:24:34;;;;;;;14.10;9.95;;;;;;;18.37;nan;97513.59;5014353;28;20044;-66
2022/03/29 16:26:59;;;;;;;15.90;11.32;;;;;;;18.39;nan;97521.25;5016899;28;20395;-60
2022/03/29 16:32:47;;;;;;;17.05;11.85;;;;;;;18.37;nan;97518.78;5011293;28;20463;-60
2022/03/29 16:35:12;;;;;;;14.98;11.93;;;;;;;18.31;nan;97523.53;5014287;28;20037;-61
2022/03/29 16:37:38;;;;;;;17.52;11.40;;;;;;;18.24;nan;97523.97;5014242;28;20511;-61
2022/03/29 16:40:05;;;;;;;15.65;13.23;;;;;;;18.13;nan;97515.22;5011474;28;20030;-61
2022/03/29 16:42:31;;;;;;;15.85;11.73;;;;;;;18.16;nan;97523.63;5012765;28;20040;-60
2022/03/29 16:44:57;;;;;;;14.55;11.65;;;;;;;18.00;nan;97520.41;5014917;28;20057;-60
2022/03/29 16:47:22;;;;;;;16.45;12.60;;;;;;;17.98;nan;97514.50;5013637;28;20049;-59
2022/03/29 16:49:50;;;;;;;12.98;10.25;;;;;;;17.98;nan;97524.88;5012542;28;20479;-60
2022/03/29 16:52:16;;;;;;;15.98;10.88;;;;;;;17.82;nan;97511.25;5011735;28;20072;-61
2022/03/29 16:54:41;;;;;;;14.10;11.00;;;;;;;17.83;nan;97512.91;5014517;28;20145;-63